sensor_id;sensor_type;location;lat;lon;timestamp;P1;durP1;ratioP1;P2;durP2;ratioP2
73315;SDS011;61545;53.726;-0.444;2022-07-31T00:03:07;3.2;;;2.7;;
73315;SDS011;61545;53.726;-0.444;2022-07-31T00:08:06;3.6;;;2.9;;
73315;SDS011;61545;53.726;-0.444;2022-07-31T00:13:06;5.9;;;3;;
73315;SDS011;61545;53.726;-0.444;2022-07-31T00:18:06;3.8;;;2.8;;
73315;SDS011;61545;53.726;-0.444;2022-07-31T00:23:06;3.8;;;2.8;;
73315;SDS011;61545;53.726;-0.444;2022-07-31T00:28:06;5.9;;;3.1;;
73315;SDS011;61545;53.726;-0.444;2022-07-31T00:33:06;4.9;;;3.2;;
73315;SDS011;61545;53.726;-0.444;2022-07-31T00:38:07;5.6;;;3.3;;
73315;SDS011;61545;53.726;-0.444;2022-07-31T00:43:06;5.0;;;3.5;;
73315;SDS011;61545;53.726;-0.444;2022-07-31T00:48:06;7.2;;;4;;
73315;SDS011;61545;53.726;-0.444;2022-07-31T00:53:06;7.2;;;4;;
73315;SDS011;61545;53.726;-0.444;2022-07-31T00:58:06;9.3;;;4.2;;
73315;SDS011;61545;53.726;-0.444;2022-07-31T01:03:06;12.2;;;5.2;;
73315;SDS011;61545;53.726;-0.444;2022-07-31T01:08:06;8.8;;;4;;
73315;SDS011;61545;53.726;-0.444;2022-07-31T01:13:09;7.8;;;4.5;;
73315;SDS011;61545;53.726;-0.444;2022-07-31T01:18:06;7.5;;;4;;
73315;SDS011;61545;53.726;-0.444;2022-07-31T01:23:30;7.5;;;4;;
73315;SDS011;61545;53.726;-0.444;2022-07-31T01:28:13;7.8;;;4.9;;
73315;SDS011;61545;53.726;-0.444;2022-07-31T01:33:07;9.5;;;4.9;;
73315;SDS011;61545;53.726;-0.444;2022-07-31T01:38:09;7.9;;;4.7;;
73315;SDS011;61545;53.726;-0.444;2022-07-31T01:43:07;11.5;;;6.4;;
73315;SDS011;61545;53.726;-0.444;2022-07-31T01:48:07;9.1;;;5.8;;
73315;SDS011;61545;53.726;-0.444;2022-07-31T01:53:06;9.1;;;5.8;;
73315;SDS011;61545;53.726;-0.444;2022-07-31T01:58:06;9.6;;;5.4;;
73315;SDS011;61545;53.726;-0.444;2022-07-31T02:03:06;9.6;;;5.9;;
73315;SDS011;61545;53.726;-0.444;2022-07-31T02:08:07;6.7;;;5.2;;
73315;SDS011;61545;53.726;-0.444;2022-07-31T02:13:06;5.8;;;4.9;;
73315;SDS011;61545;53.726;-0.444;2022-07-31T02:18:06;5.6;;;4.2;;
73315;SDS011;61545;53.726;-0.444;2022-07-31T02:23:06;5.6;;;4.2;;
73315;SDS011;61545;53.726;-0.444;2022-07-31T02:28:08;7.4;;;4;;
73315;SDS011;61545;53.726;-0.444;2022-07-31T02:33:07;5.2;;;3.9;;
73315;SDS011;61545;53.726;-0.444;2022-07-31T02:38:06;10.3;;;5.2;;
73315;SDS011;61545;53.726;-0.444;2022-07-31T02:43:06;8.5;;;4.4;;
73315;SDS011;61545;53.726;-0.444;2022-07-31T02:48:06;10.1;;;4.9;;
73315;SDS011;61545;53.726;-0.444;2022-07-31T02:53:06;10.1;;;4.9;;
73315;SDS011;61545;53.726;-0.444;2022-07-31T02:58:06;7.5;;;4.8;;
73315;SDS011;61545;53.726;-0.444;2022-07-31T03:03:06;11.1;;;5.8;;
73315;SDS011;61545;53.726;-0.444;2022-07-31T03:08:06;9.7;;;5.5;;
73315;SDS011;61545;53.726;-0.444;2022-07-31T03:13:06;9.5;;;5.9;;
73315;SDS011;61545;53.726;-0.444;2022-07-31T03:18:06;9.0;;;5.4;;
73315;SDS011;61545;53.726;-0.444;2022-07-31T03:23:06;9.0;;;5.4;;
73315;SDS011;61545;53.726;-0.444;2022-07-31T03:28:06;8.1;;;5.4;;
73315;SDS011;61545;53.726;-0.444;2022-07-31T03:33:06;9.1;;;5.8;;
73315;SDS011;61545;53.726;-0.444;2022-07-31T03:38:06;11.3;;;7.2;;
73315;SDS011;61545;53.726;-0.444;2022-07-31T03:43:06;11.7;;;8.2;;
73315;SDS011;61545;53.726;-0.444;2022-07-31T03:48:06;12.3;;;7.3;;
73315;SDS011;61545;53.726;-0.444;2022-07-31T03:53:06;12.3;;;7.3;;
73315;SDS011;61545;53.726;-0.444;2022-07-31T03:58:06;10.1;;;7.5;;
73315;SDS011;61545;53.726;-0.444;2022-07-31T04:03:07;9.7;;;6.8;;
73315;SDS011;61545;53.726;-0.444;2022-07-31T04:08:07;9.6;;;5.4;;
73315;SDS011;61545;53.726;-0.444;2022-07-31T04:13:06;7.7;;;5.2;;
73315;SDS011;61545;53.726;-0.444;2022-07-31T04:18:06;11.1;;;6.2;;
73315;SDS011;61545;53.726;-0.444;2022-07-31T04:23:06;11.1;;;6.2;;
73315;SDS011;61545;53.726;-0.444;2022-07-31T04:28:06;7.9;;;5.7;;
73315;SDS011;61545;53.726;-0.444;2022-07-31T04:33:06;6.3;;;4.3;;
73315;SDS011;61545;53.726;-0.444;2022-07-31T04:38:06;8.8;;;4.4;;
73315;SDS011;61545;53.726;-0.444;2022-07-31T04:43:06;8.3;;;3.8;;
73315;SDS011;61545;53.726;-0.444;2022-07-31T04:48:06;4.3;;;3.2;;
73315;SDS011;61545;53.726;-0.444;2022-07-31T04:53:06;4.3;;;3.2;;
73315;SDS011;61545;53.726;-0.444;2022-07-31T04:58:06;5.5;;;3.7;;
73315;SDS011;61545;53.726;-0.444;2022-07-31T05:03:06;5.3;;;3.5;;
73315;SDS011;61545;53.726;-0.444;2022-07-31T05:08:06;3.8;;;2.5;;
73315;SDS011;61545;53.726;-0.444;2022-07-31T05:13:06;4.9;;;2.6;;
73315;SDS011;61545;53.726;-0.444;2022-07-31T05:18:06;4.4;;;2.8;;
73315;SDS011;61545;53.726;-0.444;2022-07-31T05:23:06;4.4;;;2.8;;
73315;SDS011;61545;53.726;-0.444;2022-07-31T05:28:06;4.8;;;2.4;;
73315;SDS011;61545;53.726;-0.444;2022-07-31T05:33:06;3.5;;;1.9;;
73315;SDS011;61545;53.726;-0.444;2022-07-31T05:38:06;1.7;;;1.2;;
73315;SDS011;61545;53.726;-0.444;2022-07-31T05:43:06;3.0;;;1.7;;
73315;SDS011;61545;53.726;-0.444;2022-07-31T05:48:06;1.5;;;1.2;;
73315;SDS011;61545;53.726;-0.444;2022-07-31T05:53:06;1.5;;;1.2;;
73315;SDS011;61545;53.726;-0.444;2022-07-31T05:58:06;4.2;;;2.1;;
73315;SDS011;61545;53.726;-0.444;2022-07-31T06:03:06;2.2;;;1.5;;
73315;SDS011;61545;53.726;-0.444;2022-07-31T06:08:06;4.8;;;1.1;;
73315;SDS011;61545;53.726;-0.444;2022-07-31T06:13:06;3.3;;;1.3;;
73315;SDS011;61545;53.726;-0.444;2022-07-31T06:18:06;2.2;;;1.2;;
73315;SDS011;61545;53.726;-0.444;2022-07-31T06:23:06;2.2;;;1.2;;
73315;SDS011;61545;53.726;-0.444;2022-07-31T06:28:06;1.8;;;1.1;;
73315;SDS011;61545;53.726;-0.444;2022-07-31T06:33:06;3.0;;;0.8;;
73315;SDS011;61545;53.726;-0.444;2022-07-31T06:38:06;0.9;;;0.7;;
73315;SDS011;61545;53.726;-0.444;2022-07-31T06:43:06;3.3;;;1;;
73315;SDS011;61545;53.726;-0.444;2022-07-31T06:48:06;1.9;;;1.2;;
73315;SDS011;61545;53.726;-0.444;2022-07-31T06:53:06;1.9;;;1.2;;
73315;SDS011;61545;53.726;-0.444;2022-07-31T06:58:06;2.0;;;1;;
73315;SDS011;61545;53.726;-0.444;2022-07-31T07:03:06;3.1;;;1;;
73315;SDS011;61545;53.726;-0.444;2022-07-31T07:08:06;2.7;;;1.1;;
73315;SDS011;61545;53.726;-0.444;2022-07-31T07:13:06;2.1;;;1;;
73315;SDS011;61545;53.726;-0.444;2022-07-31T07:18:06;4.4;;;1.5;;
73315;SDS011;61545;53.726;-0.444;2022-07-31T07:23:06;4.4;;;1.5;;
73315;SDS011;61545;53.726;-0.444;2022-07-31T07:28:06;2.4;;;1.3;;
73315;SDS011;61545;53.726;-0.444;2022-07-31T07:33:06;7.0;;;1.3;;
73315;SDS011;61545;53.726;-0.444;2022-07-31T07:38:06;2.9;;;1.1;;
73315;SDS011;61545;53.726;-0.444;2022-07-31T07:43:06;2.5;;;1.2;;
73315;SDS011;61545;53.726;-0.444;2022-07-31T07:48:06;5.3;;;1;;
73315;SDS011;61545;53.726;-0.444;2022-07-31T07:53:06;5.3;;;1;;
73315;SDS011;61545;53.726;-0.444;2022-07-31T07:58:06;5.0;;;1;;
73315;SDS011;61545;53.726;-0.444;2022-07-31T08:03:06;6.8;;;1;;
73315;SDS011;61545;53.726;-0.444;2022-07-31T08:08:06;2.1;;;1;;
73315;SDS011;61545;53.726;-0.444;2022-07-31T08:13:06;4.8;;;1.5;;
73315;SDS011;61545;53.726;-0.444;2022-07-31T08:18:06;3.7;;;1.9;;
73315;SDS011;61545;53.726;-0.444;2022-07-31T08:23:06;3.7;;;1.9;;
73315;SDS011;61545;53.726;-0.444;2022-07-31T08:28:06;2.3;;;2.1;;
73315;SDS011;61545;53.726;-0.444;2022-07-31T08:33:06;3.2;;;2.6;;
73315;SDS011;61545;53.726;-0.444;2022-07-31T08:38:06;3.6;;;2.7;;
73315;SDS011;61545;53.726;-0.444;2022-07-31T08:43:06;5.8;;;3;;
73315;SDS011;61545;53.726;-0.444;2022-07-31T08:48:07;5.3;;;3.4;;
73315;SDS011;61545;53.726;-0.444;2022-07-31T08:53:06;5.3;;;3.4;;
73315;SDS011;61545;53.726;-0.444;2022-07-31T08:58:06;2.8;;;2.6;;
73315;SDS011;61545;53.726;-0.444;2022-07-31T09:03:07;4.6;;;2.2;;
73315;SDS011;61545;53.726;-0.444;2022-07-31T09:08:06;3.6;;;2.3;;
73315;SDS011;61545;53.726;-0.444;2022-07-31T09:13:15;5.9;;;2.3;;
73315;SDS011;61545;53.726;-0.444;2022-07-31T09:18:14;2.0;;;1.9;;
73315;SDS011;61545;53.726;-0.444;2022-07-31T09:23:08;2.0;;;1.9;;
73315;SDS011;61545;53.726;-0.444;2022-07-31T09:28:06;1.4;;;1.3;;
73315;SDS011;61545;53.726;-0.444;2022-07-31T09:33:14;2.4;;;1.7;;
73315;SDS011;61545;53.726;-0.444;2022-07-31T09:38:06;3.0;;;1.8;;
73315;SDS011;61545;53.726;-0.444;2022-07-31T09:43:13;2.8;;;2;;
73315;SDS011;61545;53.726;-0.444;2022-07-31T09:48:07;3.3;;;1.8;;
73315;SDS011;61545;53.726;-0.444;2022-07-31T09:53:06;3.3;;;1.8;;
73315;SDS011;61545;53.726;-0.444;2022-07-31T09:58:06;1.7;;;1.2;;
73315;SDS011;61545;53.726;-0.444;2022-07-31T10:03:06;2.6;;;1.1;;
73315;SDS011;61545;53.726;-0.444;2022-07-31T10:08:06;2.0;;;0.9;;
73315;SDS011;61545;53.726;-0.444;2022-07-31T10:13:07;1.3;;;0.6;;
73315;SDS011;61545;53.726;-0.444;2022-07-31T10:18:06;3.3;;;0.4;;
73315;SDS011;61545;53.726;-0.444;2022-07-31T10:23:08;3.3;;;0.4;;
73315;SDS011;61545;53.726;-0.444;2022-07-31T10:28:06;1.0;;;0.6;;
73315;SDS011;61545;53.726;-0.444;2022-07-31T10:33:06;0.6;;;0.4;;
73315;SDS011;61545;53.726;-0.444;2022-07-31T10:38:11;1.5;;;0.5;;
73315;SDS011;61545;53.726;-0.444;2022-07-31T10:43:16;0.4;;;0.3;;
73315;SDS011;61545;53.726;-0.444;2022-07-31T10:48:09;2.3;;;0.5;;
73315;SDS011;61545;53.726;-0.444;2022-07-31T10:53:07;2.3;;;0.5;;
73315;SDS011;61545;53.726;-0.444;2022-07-31T10:58:07;2.8;;;0.5;;
73315;SDS011;61545;53.726;-0.444;2022-07-31T11:03:14;0.7;;;0.3;;
73315;SDS011;61545;53.726;-0.444;2022-07-31T11:08:06;0.4;;;0.2;;
73315;SDS011;61545;53.726;-0.444;2022-07-31T11:13:07;1.8;;;0.3;;
73315;SDS011;61545;53.726;-0.444;2022-07-31T11:18:10;0.8;;;0.3;;
73315;SDS011;61545;53.726;-0.444;2022-07-31T11:23:06;0.8;;;0.3;;
73315;SDS011;61545;53.726;-0.444;2022-07-31T11:28:11;1.2;;;0.3;;
73315;SDS011;61545;53.726;-0.444;2022-07-31T11:33:06;0.3;;;0.2;;
73315;SDS011;61545;53.726;-0.444;2022-07-31T11:38:06;2.8;;;0.4;;
73315;SDS011;61545;53.726;-0.444;2022-07-31T11:43:06;1.8;;;0.5;;
73315;SDS011;61545;53.726;-0.444;2022-07-31T11:48:06;1.8;;;0.5;;
73315;SDS011;61545;53.726;-0.444;2022-07-31T11:53:06;2.3;;;0.3;;
73315;SDS011;61545;53.726;-0.444;2022-07-31T11:58:07;0.5;;;0.4;;
73315;SDS011;61545;53.726;-0.444;2022-07-31T12:03:07;0.6;;;0.2;;
73315;SDS011;61545;53.726;-0.444;2022-07-31T12:08:06;1.1;;;0.2;;
73315;SDS011;61545;53.726;-0.444;2022-07-31T12:13:13;1.5;;;0.4;;
73315;SDS011;61545;53.726;-0.444;2022-07-31T12:18:06;1.5;;;0.4;;
73315;SDS011;61545;53.726;-0.444;2022-07-31T12:23:06;1.4;;;0.3;;
73315;SDS011;61545;53.726;-0.444;2022-07-31T12:28:07;1.0;;;0.3;;
73315;SDS011;61545;53.726;-0.444;2022-07-31T12:33:07;1.3;;;0.3;;
73315;SDS011;61545;53.726;-0.444;2022-07-31T12:38:06;2.9;;;0.5;;
73315;SDS011;61545;53.726;-0.444;2022-07-31T12:43:06;0.7;;;0.5;;
73315;SDS011;61545;53.726;-0.444;2022-07-31T12:48:06;0.7;;;0.5;;
73315;SDS011;61545;53.726;-0.444;2022-07-31T12:53:06;0.8;;;0.5;;
73315;SDS011;61545;53.726;-0.444;2022-07-31T12:58:06;1.7;;;0.8;;
73315;SDS011;61545;53.726;-0.444;2022-07-31T13:03:06;0.7;;;0.5;;
73315;SDS011;61545;53.726;-0.444;2022-07-31T13:08:06;2.3;;;0.9;;
73315;SDS011;61545;53.726;-0.444;2022-07-31T13:13:06;3.0;;;0.9;;
73315;SDS011;61545;53.726;-0.444;2022-07-31T13:18:06;3.0;;;0.9;;
73315;SDS011;61545;53.726;-0.444;2022-07-31T13:23:06;1.8;;;1;;
73315;SDS011;61545;53.726;-0.444;2022-07-31T13:28:06;2.1;;;0.8;;
73315;SDS011;61545;53.726;-0.444;2022-07-31T13:33:06;3.0;;;0.9;;
73315;SDS011;61545;53.726;-0.444;2022-07-31T13:38:06;2.5;;;1.1;;
73315;SDS011;61545;53.726;-0.444;2022-07-31T13:43:07;1.6;;;1.1;;
73315;SDS011;61545;53.726;-0.444;2022-07-31T13:48:06;1.6;;;1.1;;
73315;SDS011;61545;53.726;-0.444;2022-07-31T13:53:06;1.8;;;1.2;;
73315;SDS011;61545;53.726;-0.444;2022-07-31T13:58:06;1.8;;;1.4;;
73315;SDS011;61545;53.726;-0.444;2022-07-31T14:03:06;5.4;;;1.7;;
73315;SDS011;61545;53.726;-0.444;2022-07-31T14:08:06;3.3;;;1.7;;
73315;SDS011;61545;53.726;-0.444;2022-07-31T14:13:06;5.0;;;1.7;;
73315;SDS011;61545;53.726;-0.444;2022-07-31T14:18:06;5.0;;;1.7;;
73315;SDS011;61545;53.726;-0.444;2022-07-31T14:23:06;4.6;;;2;;
73315;SDS011;61545;53.726;-0.444;2022-07-31T14:28:07;4.4;;;1.9;;
73315;SDS011;61545;53.726;-0.444;2022-07-31T14:33:06;4.7;;;1.7;;
73315;SDS011;61545;53.726;-0.444;2022-07-31T14:38:06;3.4;;;1.7;;
73315;SDS011;61545;53.726;-0.444;2022-07-31T14:43:06;2.9;;;1.6;;
73315;SDS011;61545;53.726;-0.444;2022-07-31T14:48:06;2.9;;;1.6;;
73315;SDS011;61545;53.726;-0.444;2022-07-31T14:53:07;4.2;;;1.9;;
73315;SDS011;61545;53.726;-0.444;2022-07-31T14:58:06;2.8;;;1.6;;
73315;SDS011;61545;53.726;-0.444;2022-07-31T15:03:06;3.9;;;1.7;;
73315;SDS011;61545;53.726;-0.444;2022-07-31T15:08:06;3.2;;;1.9;;
73315;SDS011;61545;53.726;-0.444;2022-07-31T15:13:06;2.3;;;1.6;;
73315;SDS011;61545;53.726;-0.444;2022-07-31T15:18:06;2.3;;;1.6;;
73315;SDS011;61545;53.726;-0.444;2022-07-31T15:23:06;4.3;;;1.9;;
73315;SDS011;61545;53.726;-0.444;2022-07-31T15:28:06;4.7;;;2.2;;
73315;SDS011;61545;53.726;-0.444;2022-07-31T15:33:06;4.3;;;1.6;;
73315;SDS011;61545;53.726;-0.444;2022-07-31T15:38:06;4.4;;;2;;
73315;SDS011;61545;53.726;-0.444;2022-07-31T15:43:06;3.3;;;1.6;;
73315;SDS011;61545;53.726;-0.444;2022-07-31T15:48:06;3.3;;;1.6;;
73315;SDS011;61545;53.726;-0.444;2022-07-31T15:53:06;8.3;;;2.1;;
73315;SDS011;61545;53.726;-0.444;2022-07-31T15:58:06;3.3;;;1.8;;
73315;SDS011;61545;53.726;-0.444;2022-07-31T16:03:06;6.4;;;2.6;;
73315;SDS011;61545;53.726;-0.444;2022-07-31T16:08:06;4.4;;;2;;
73315;SDS011;61545;53.726;-0.444;2022-07-31T16:13:06;6.4;;;1.8;;
73315;SDS011;61545;53.726;-0.444;2022-07-31T16:18:06;6.4;;;1.8;;
73315;SDS011;61545;53.726;-0.444;2022-07-31T16:23:06;6.0;;;2.2;;
73315;SDS011;61545;53.726;-0.444;2022-07-31T16:28:06;3.1;;;1.7;;
73315;SDS011;61545;53.726;-0.444;2022-07-31T16:33:06;5.5;;;1.9;;
73315;SDS011;61545;53.726;-0.444;2022-07-31T16:38:06;5.3;;;2;;
73315;SDS011;61545;53.726;-0.444;2022-07-31T16:43:06;6.0;;;2.1;;
73315;SDS011;61545;53.726;-0.444;2022-07-31T16:48:06;6.0;;;2.1;;
73315;SDS011;61545;53.726;-0.444;2022-07-31T16:53:06;5.2;;;2.1;;
73315;SDS011;61545;53.726;-0.444;2022-07-31T16:58:06;6.7;;;2.3;;
73315;SDS011;61545;53.726;-0.444;2022-07-31T17:03:06;5.1;;;1.9;;
73315;SDS011;61545;53.726;-0.444;2022-07-31T17:08:06;7.7;;;2.2;;
73315;SDS011;61545;53.726;-0.444;2022-07-31T17:13:06;6.6;;;1.9;;
73315;SDS011;61545;53.726;-0.444;2022-07-31T17:18:06;6.6;;;1.9;;
73315;SDS011;61545;53.726;-0.444;2022-07-31T17:23:06;6.3;;;1.9;;
73315;SDS011;61545;53.726;-0.444;2022-07-31T17:28:06;6.5;;;2.4;;
73315;SDS011;61545;53.726;-0.444;2022-07-31T17:33:06;9.3;;;2.3;;
73315;SDS011;61545;53.726;-0.444;2022-07-31T17:38:07;6.0;;;2.1;;
73315;SDS011;61545;53.726;-0.444;2022-07-31T17:43:06;7.5;;;2.2;;
73315;SDS011;61545;53.726;-0.444;2022-07-31T17:48:07;7.5;;;2.2;;
73315;SDS011;61545;53.726;-0.444;2022-07-31T17:53:06;7.4;;;1.8;;
73315;SDS011;61545;53.726;-0.444;2022-07-31T17:58:06;9.3;;;2.1;;
73315;SDS011;61545;53.726;-0.444;2022-07-31T18:03:07;10.1;;;2.2;;
73315;SDS011;61545;53.726;-0.444;2022-07-31T18:08:06;5.9;;;2;;
73315;SDS011;61545;53.726;-0.444;2022-07-31T18:13:06;7.2;;;2.1;;
73315;SDS011;61545;53.726;-0.444;2022-07-31T18:18:06;7.2;;;2.1;;
73315;SDS011;61545;53.726;-0.444;2022-07-31T18:23:06;9.6;;;2.4;;
73315;SDS011;61545;53.726;-0.444;2022-07-31T18:28:06;11.2;;;2.6;;
73315;SDS011;61545;53.726;-0.444;2022-07-31T18:33:06;10.0;;;2.2;;
73315;SDS011;61545;53.726;-0.444;2022-07-31T18:38:06;11.1;;;2.6;;
73315;SDS011;61545;53.726;-0.444;2022-07-31T18:43:06;12.4;;;2.6;;
73315;SDS011;61545;53.726;-0.444;2022-07-31T18:48:06;12.4;;;2.6;;
73315;SDS011;61545;53.726;-0.444;2022-07-31T18:53:06;8.7;;;2.4;;
73315;SDS011;61545;53.726;-0.444;2022-07-31T18:58:06;10.9;;;2.5;;
73315;SDS011;61545;53.726;-0.444;2022-07-31T19:03:06;5.2;;;1.6;;
73315;SDS011;61545;53.726;-0.444;2022-07-31T19:08:06;6.9;;;1.9;;
73315;SDS011;61545;53.726;-0.444;2022-07-31T19:13:06;6.9;;;1.7;;
73315;SDS011;61545;53.726;-0.444;2022-07-31T19:18:06;6.9;;;1.7;;
73315;SDS011;61545;53.726;-0.444;2022-07-31T19:23:06;6.6;;;1.8;;
73315;SDS011;61545;53.726;-0.444;2022-07-31T19:28:06;8.5;;;1.7;;
73315;SDS011;61545;53.726;-0.444;2022-07-31T19:33:06;7.9;;;1.8;;
73315;SDS011;61545;53.726;-0.444;2022-07-31T19:38:06;5.4;;;1.4;;
73315;SDS011;61545;53.726;-0.444;2022-07-31T19:43:07;7.2;;;1.6;;
73315;SDS011;61545;53.726;-0.444;2022-07-31T19:48:06;7.2;;;1.6;;
73315;SDS011;61545;53.726;-0.444;2022-07-31T19:53:06;7.6;;;1.5;;
73315;SDS011;61545;53.726;-0.444;2022-07-31T19:58:06;8.2;;;1.5;;
73315;SDS011;61545;53.726;-0.444;2022-07-31T20:03:06;9.2;;;1.7;;
73315;SDS011;61545;53.726;-0.444;2022-07-31T20:08:06;7.8;;;1.6;;
73315;SDS011;61545;53.726;-0.444;2022-07-31T20:13:06;9.4;;;1.7;;
73315;SDS011;61545;53.726;-0.444;2022-07-31T20:18:06;9.4;;;1.7;;
73315;SDS011;61545;53.726;-0.444;2022-07-31T20:23:06;10.1;;;1.8;;
73315;SDS011;61545;53.726;-0.444;2022-07-31T20:28:06;8.7;;;1.6;;
73315;SDS011;61545;53.726;-0.444;2022-07-31T20:33:06;11.6;;;2;;
73315;SDS011;61545;53.726;-0.444;2022-07-31T20:38:07;7.1;;;1.5;;
73315;SDS011;61545;53.726;-0.444;2022-07-31T20:43:06;8.4;;;2;;
73315;SDS011;61545;53.726;-0.444;2022-07-31T20:48:06;8.4;;;2;;
73315;SDS011;61545;53.726;-0.444;2022-07-31T20:53:06;12.7;;;1.9;;
73315;SDS011;61545;53.726;-0.444;2022-07-31T20:58:06;9.5;;;2.3;;
73315;SDS011;61545;53.726;-0.444;2022-07-31T21:03:06;11.9;;;1.8;;
73315;SDS011;61545;53.726;-0.444;2022-07-31T21:08:06;8.5;;;1.6;;
73315;SDS011;61545;53.726;-0.444;2022-07-31T21:13:07;10.9;;;2.2;;
73315;SDS011;61545;53.726;-0.444;2022-07-31T21:18:06;10.9;;;2.2;;
73315;SDS011;61545;53.726;-0.444;2022-07-31T21:23:06;10.8;;;1.8;;
73315;SDS011;61545;53.726;-0.444;2022-07-31T21:28:07;12.6;;;2.2;;
73315;SDS011;61545;53.726;-0.444;2022-07-31T21:33:07;12.8;;;1.9;;
73315;SDS011;61545;53.726;-0.444;2022-07-31T21:38:07;7.7;;;2;;
73315;SDS011;61545;53.726;-0.444;2022-07-31T21:43:07;7.9;;;2;;
73315;SDS011;61545;53.726;-0.444;2022-07-31T21:48:08;7.9;;;2;;
73315;SDS011;61545;53.726;-0.444;2022-07-31T21:53:07;9.4;;;2;;
73315;SDS011;61545;53.726;-0.444;2022-07-31T21:58:07;11.3;;;2.4;;
73315;SDS011;61545;53.726;-0.444;2022-07-31T22:03:06;7.4;;;1.9;;
73315;SDS011;61545;53.726;-0.444;2022-07-31T22:08:06;7.7;;;2;;
73315;SDS011;61545;53.726;-0.444;2022-07-31T22:13:06;15.4;;;2.6;;
73315;SDS011;61545;53.726;-0.444;2022-07-31T22:18:07;15.4;;;2.6;;
73315;SDS011;61545;53.726;-0.444;2022-07-31T22:23:07;12.6;;;2.5;;
73315;SDS011;61545;53.726;-0.444;2022-07-31T22:28:07;11.4;;;2.1;;
73315;SDS011;61545;53.726;-0.444;2022-07-31T22:33:07;8.8;;;2.1;;
73315;SDS011;61545;53.726;-0.444;2022-07-31T22:38:07;9.5;;;2.3;;
73315;SDS011;61545;53.726;-0.444;2022-07-31T22:43:07;13.1;;;2.2;;
73315;SDS011;61545;53.726;-0.444;2022-07-31T22:48:07;13.1;;;2.2;;
73315;SDS011;61545;53.726;-0.444;2022-07-31T22:53:06;10.2;;;2.2;;
73315;SDS011;61545;53.726;-0.444;2022-07-31T22:58:06;11.8;;;2.7;;
73315;SDS011;61545;53.726;-0.444;2022-07-31T23:03:06;13.1;;;2.8;;
73315;SDS011;61545;53.726;-0.444;2022-07-31T23:08:06;13.2;;;2.8;;
73315;SDS011;61545;53.726;-0.444;2022-07-31T23:13:06;14.1;;;2.9;;
73315;SDS011;61545;53.726;-0.444;2022-07-31T23:18:06;14.1;;;2.9;;
73315;SDS011;61545;53.726;-0.444;2022-07-31T23:23:06;11.5;;;2.4;;
73315;SDS011;61545;53.726;-0.444;2022-07-31T23:28:06;18.9;;;2.7;;
73315;SDS011;61545;53.726;-0.444;2022-07-31T23:33:06;10.4;;;2.4;;
73315;SDS011;61545;53.726;-0.444;2022-07-31T23:38:06;13.2;;;2.6;;
73315;SDS011;61545;53.726;-0.444;2022-07-31T23:43:06;9.6;;;2.3;;
73315;SDS011;61545;53.726;-0.444;2022-07-31T23:48:06;9.6;;;2.3;;
73315;SDS011;61545;53.726;-0.444;2022-07-31T23:53:06;11.4;;;2.2;;
73315;SDS011;61545;53.726;-0.444;2022-07-31T23:58:06;15.1;;;2.3;;
